sensor_id;sensor_type;location;lat;lon;timestamp;P1;durP1;ratioP1;P2;durP2;ratioP2
31210;SDS011;17836;50.948;3.946;2022-08-18T00:00:40;30.13;;;22.05;;
31210;SDS011;17836;50.948;3.946;2022-08-18T00:03:07;32.60;;;22.80;;
31210;SDS011;17836;50.948;3.946;2022-08-18T00:05:33;31.75;;;22.27;;
31210;SDS011;17836;50.948;3.946;2022-08-18T00:07:59;32.58;;;22.40;;
31210;SDS011;17836;50.948;3.946;2022-08-18T00:10:25;28.45;;;21.27;;
31210;SDS011;17836;50.948;3.946;2022-08-18T00:12:51;33.30;;;23.35;;
31210;SDS011;17836;50.948;3.946;2022-08-18T00:15:16;36.20;;;24.03;;
31210;SDS011;17836;50.948;3.946;2022-08-18T00:17:44;29.05;;;22.00;;
31210;SDS011;17836;50.948;3.946;2022-08-18T00:20:11;33.55;;;24.75;;
31210;SDS011;17836;50.948;3.946;2022-08-18T00:22:37;35.85;;;24.85;;
31210;SDS011;17836;50.948;3.946;2022-08-18T00:25:04;33.50;;;24.65;;
31210;SDS011;17836;50.948;3.946;2022-08-18T00:27:30;41.55;;;25.55;;
31210;SDS011;17836;50.948;3.946;2022-08-18T00:29:57;38.92;;;26.98;;
31210;SDS011;17836;50.948;3.946;2022-08-18T00:32:25;37.58;;;25.48;;
31210;SDS011;17836;50.948;3.946;2022-08-18T00:34:51;42.47;;;26.60;;
31210;SDS011;17836;50.948;3.946;2022-08-18T00:37:17;38.65;;;26.05;;
31210;SDS011;17836;50.948;3.946;2022-08-18T00:39:42;39.72;;;25.55;;
31210;SDS011;17836;50.948;3.946;2022-08-18T00:45:05;40.45;;;25.00;;
31210;SDS011;17836;50.948;3.946;2022-08-18T00:47:31;39.78;;;25.70;;
31210;SDS011;17836;50.948;3.946;2022-08-18T00:49:56;38.72;;;24.80;;
31210;SDS011;17836;50.948;3.946;2022-08-18T00:52:22;35.75;;;23.58;;
31210;SDS011;17836;50.948;3.946;2022-08-18T00:54:48;41.65;;;26.80;;
31210;SDS011;17836;50.948;3.946;2022-08-18T00:57:15;42.05;;;26.40;;
31210;SDS011;17836;50.948;3.946;2022-08-18T01:02:10;37.67;;;25.23;;
31210;SDS011;17836;50.948;3.946;2022-08-18T01:07:23;41.67;;;27.00;;
31210;SDS011;17836;50.948;3.946;2022-08-18T01:09:50;42.60;;;28.13;;
31210;SDS011;17836;50.948;3.946;2022-08-18T01:12:16;42.28;;;24.95;;
31210;SDS011;17836;50.948;3.946;2022-08-18T01:14:41;42.55;;;28.27;;
31210;SDS011;17836;50.948;3.946;2022-08-18T01:17:07;44.10;;;27.98;;
31210;SDS011;17836;50.948;3.946;2022-08-18T01:19:51;38.42;;;25.52;;
31210;SDS011;17836;50.948;3.946;2022-08-18T01:25:11;39.90;;;25.92;;
31210;SDS011;17836;50.948;3.946;2022-08-18T01:27:55;43.78;;;26.88;;
31210;SDS011;17836;50.948;3.946;2022-08-18T01:30:21;41.85;;;27.35;;
31210;SDS011;17836;50.948;3.946;2022-08-18T01:32:49;40.40;;;26.33;;
31210;SDS011;17836;50.948;3.946;2022-08-18T01:35:16;45.67;;;28.70;;
31210;SDS011;17836;50.948;3.946;2022-08-18T01:37:42;45.00;;;27.95;;
31210;SDS011;17836;50.948;3.946;2022-08-18T01:40:08;47.70;;;30.30;;
31210;SDS011;17836;50.948;3.946;2022-08-18T01:42:34;41.30;;;27.67;;
31210;SDS011;17836;50.948;3.946;2022-08-18T01:45:00;40.47;;;27.88;;
31210;SDS011;17836;50.948;3.946;2022-08-18T01:47:28;45.17;;;29.40;;
31210;SDS011;17836;50.948;3.946;2022-08-18T01:49:55;49.75;;;31.42;;
31210;SDS011;17836;50.948;3.946;2022-08-18T01:52:21;52.35;;;30.20;;
31210;SDS011;17836;50.948;3.946;2022-08-18T01:54:47;50.70;;;31.45;;
31210;SDS011;17836;50.948;3.946;2022-08-18T01:57:13;53.03;;;31.98;;
31210;SDS011;17836;50.948;3.946;2022-08-18T01:59:39;49.63;;;31.25;;
31210;SDS011;17836;50.948;3.946;2022-08-18T02:02:04;49.78;;;30.85;;
31210;SDS011;17836;50.948;3.946;2022-08-18T02:04:30;46.03;;;29.75;;
31210;SDS011;17836;50.948;3.946;2022-08-18T02:06:57;46.03;;;31.13;;
31210;SDS011;17836;50.948;3.946;2022-08-18T02:09:22;52.10;;;31.75;;
31210;SDS011;17836;50.948;3.946;2022-08-18T02:11:48;49.63;;;30.85;;
31210;SDS011;17836;50.948;3.946;2022-08-18T02:14:13;52.63;;;31.43;;
31210;SDS011;17836;50.948;3.946;2022-08-18T02:16:39;54.58;;;32.05;;
31210;SDS011;17836;50.948;3.946;2022-08-18T02:19:04;53.90;;;30.93;;
31210;SDS011;17836;50.948;3.946;2022-08-18T02:21:32;46.90;;;28.98;;
31210;SDS011;17836;50.948;3.946;2022-08-18T02:23:58;50.22;;;30.55;;
31210;SDS011;17836;50.948;3.946;2022-08-18T02:26:23;46.88;;;29.73;;
31210;SDS011;17836;50.948;3.946;2022-08-18T02:28:49;47.17;;;31.00;;
31210;SDS011;17836;50.948;3.946;2022-08-18T02:31:16;50.80;;;32.17;;
31210;SDS011;17836;50.948;3.946;2022-08-18T02:33:42;49.80;;;31.45;;
31210;SDS011;17836;50.948;3.946;2022-08-18T02:36:08;50.03;;;30.77;;
31210;SDS011;17836;50.948;3.946;2022-08-18T02:38:37;54.92;;;32.63;;
31210;SDS011;17836;50.948;3.946;2022-08-18T02:41:03;49.00;;;30.67;;
31210;SDS011;17836;50.948;3.946;2022-08-18T02:43:30;48.03;;;31.48;;
31210;SDS011;17836;50.948;3.946;2022-08-18T02:45:56;44.95;;;29.52;;
31210;SDS011;17836;50.948;3.946;2022-08-18T02:48:21;42.13;;;29.00;;
31210;SDS011;17836;50.948;3.946;2022-08-18T02:50:59;43.70;;;29.60;;
31210;SDS011;17836;50.948;3.946;2022-08-18T02:53:24;44.72;;;29.63;;
31210;SDS011;17836;50.948;3.946;2022-08-18T02:55:49;43.87;;;29.57;;
31210;SDS011;17836;50.948;3.946;2022-08-18T02:58:14;45.97;;;29.57;;
31210;SDS011;17836;50.948;3.946;2022-08-18T03:00:40;40.75;;;28.35;;
31210;SDS011;17836;50.948;3.946;2022-08-18T03:03:09;40.47;;;28.85;;
31210;SDS011;17836;50.948;3.946;2022-08-18T03:05:34;37.78;;;26.33;;
31210;SDS011;17836;50.948;3.946;2022-08-18T03:07:59;38.03;;;26.57;;
31210;SDS011;17836;50.948;3.946;2022-08-18T03:10:24;36.70;;;26.80;;
31210;SDS011;17836;50.948;3.946;2022-08-18T03:12:50;35.07;;;26.53;;
31210;SDS011;17836;50.948;3.946;2022-08-18T03:15:15;36.97;;;26.13;;
31210;SDS011;17836;50.948;3.946;2022-08-18T03:17:40;43.73;;;27.23;;
31210;SDS011;17836;50.948;3.946;2022-08-18T03:20:06;46.27;;;29.67;;
31210;SDS011;17836;50.948;3.946;2022-08-18T03:22:31;36.90;;;26.70;;
31210;SDS011;17836;50.948;3.946;2022-08-18T03:24:57;43.00;;;27.77;;
31210;SDS011;17836;50.948;3.946;2022-08-18T03:27:23;34.60;;;25.47;;
31210;SDS011;17836;50.948;3.946;2022-08-18T03:29:48;35.17;;;26.17;;
31210;SDS011;17836;50.948;3.946;2022-08-18T03:32:15;40.25;;;27.40;;
31210;SDS011;17836;50.948;3.946;2022-08-18T03:34:40;36.57;;;26.07;;
31210;SDS011;17836;50.948;3.946;2022-08-18T03:37:06;33.28;;;26.35;;
31210;SDS011;17836;50.948;3.946;2022-08-18T03:39:32;32.35;;;25.38;;
31210;SDS011;17836;50.948;3.946;2022-08-18T03:41:58;34.03;;;24.98;;
31210;SDS011;17836;50.948;3.946;2022-08-18T03:44:23;35.70;;;26.43;;
31210;SDS011;17836;50.948;3.946;2022-08-18T03:46:49;35.22;;;25.33;;
31210;SDS011;17836;50.948;3.946;2022-08-18T03:49:15;34.80;;;25.65;;
31210;SDS011;17836;50.948;3.946;2022-08-18T03:51:42;34.28;;;24.73;;
31210;SDS011;17836;50.948;3.946;2022-08-18T03:54:08;35.08;;;24.85;;
31210;SDS011;17836;50.948;3.946;2022-08-18T03:56:34;34.33;;;25.48;;
31210;SDS011;17836;50.948;3.946;2022-08-18T03:59:02;35.28;;;25.40;;
31210;SDS011;17836;50.948;3.946;2022-08-18T04:01:30;31.27;;;25.15;;
31210;SDS011;17836;50.948;3.946;2022-08-18T04:03:57;32.10;;;24.42;;
31210;SDS011;17836;50.948;3.946;2022-08-18T04:06:25;32.75;;;25.02;;
31210;SDS011;17836;50.948;3.946;2022-08-18T04:08:52;33.53;;;23.45;;
31210;SDS011;17836;50.948;3.946;2022-08-18T04:11:17;32.42;;;25.83;;
31210;SDS011;17836;50.948;3.946;2022-08-18T04:13:43;30.93;;;22.33;;
31210;SDS011;17836;50.948;3.946;2022-08-18T04:16:08;28.53;;;22.67;;
31210;SDS011;17836;50.948;3.946;2022-08-18T04:18:34;32.80;;;23.15;;
31210;SDS011;17836;50.948;3.946;2022-08-18T04:21:03;26.60;;;20.98;;
31210;SDS011;17836;50.948;3.946;2022-08-18T04:23:31;24.55;;;20.27;;
31210;SDS011;17836;50.948;3.946;2022-08-18T04:25:57;27.75;;;22.55;;
31210;SDS011;17836;50.948;3.946;2022-08-18T04:28:23;27.80;;;21.65;;
31210;SDS011;17836;50.948;3.946;2022-08-18T04:30:48;24.08;;;20.30;;
31210;SDS011;17836;50.948;3.946;2022-08-18T04:33:13;24.67;;;20.57;;
31210;SDS011;17836;50.948;3.946;2022-08-18T04:35:38;28.70;;;21.60;;
31210;SDS011;17836;50.948;3.946;2022-08-18T04:38:04;22.60;;;20.05;;
31210;SDS011;17836;50.948;3.946;2022-08-18T04:40:29;25.50;;;20.73;;
31210;SDS011;17836;50.948;3.946;2022-08-18T04:42:57;24.33;;;20.35;;
31210;SDS011;17836;50.948;3.946;2022-08-18T04:45:22;27.00;;;22.40;;
31210;SDS011;17836;50.948;3.946;2022-08-18T04:47:48;26.88;;;20.98;;
31210;SDS011;17836;50.948;3.946;2022-08-18T04:50:13;29.80;;;23.00;;
31210;SDS011;17836;50.948;3.946;2022-08-18T04:52:38;28.10;;;21.90;;
31210;SDS011;17836;50.948;3.946;2022-08-18T04:55:22;29.25;;;21.15;;
31210;SDS011;17836;50.948;3.946;2022-08-18T04:57:47;28.27;;;21.17;;
31210;SDS011;17836;50.948;3.946;2022-08-18T05:00:13;34.13;;;22.43;;
31210;SDS011;17836;50.948;3.946;2022-08-18T05:02:39;29.00;;;22.35;;
31210;SDS011;17836;50.948;3.946;2022-08-18T05:05:04;28.40;;;22.50;;
31210;SDS011;17836;50.948;3.946;2022-08-18T05:07:30;26.98;;;21.00;;
31210;SDS011;17836;50.948;3.946;2022-08-18T05:09:55;26.00;;;20.85;;
31210;SDS011;17836;50.948;3.946;2022-08-18T05:12:21;25.88;;;20.85;;
31210;SDS011;17836;50.948;3.946;2022-08-18T05:14:47;28.10;;;21.40;;
31210;SDS011;17836;50.948;3.946;2022-08-18T05:17:13;26.95;;;21.65;;
31210;SDS011;17836;50.948;3.946;2022-08-18T05:19:39;23.63;;;19.23;;
31210;SDS011;17836;50.948;3.946;2022-08-18T05:22:05;25.48;;;21.23;;
31210;SDS011;17836;50.948;3.946;2022-08-18T05:24:31;31.95;;;23.38;;
31210;SDS011;17836;50.948;3.946;2022-08-18T05:26:59;31.42;;;22.67;;
31210;SDS011;17836;50.948;3.946;2022-08-18T05:29:24;29.15;;;21.42;;
31210;SDS011;17836;50.948;3.946;2022-08-18T05:31:50;25.57;;;20.90;;
31210;SDS011;17836;50.948;3.946;2022-08-18T05:34:20;26.02;;;20.30;;
31210;SDS011;17836;50.948;3.946;2022-08-18T05:41:40;23.17;;;18.85;;
31210;SDS011;17836;50.948;3.946;2022-08-18T05:44:08;26.00;;;19.58;;
31210;SDS011;17836;50.948;3.946;2022-08-18T05:49:25;25.05;;;18.83;;
31210;SDS011;17836;50.948;3.946;2022-08-18T05:51:53;32.00;;;21.00;;
31210;SDS011;17836;50.948;3.946;2022-08-18T05:54:20;25.58;;;20.63;;
31210;SDS011;17836;50.948;3.946;2022-08-18T05:57:13;29.17;;;19.17;;
31210;SDS011;17836;50.948;3.946;2022-08-18T05:59:40;26.75;;;19.38;;
31210;SDS011;17836;50.948;3.946;2022-08-18T06:02:10;27.55;;;20.38;;
31210;SDS011;17836;50.948;3.946;2022-08-18T06:04:43;25.50;;;19.48;;
31210;SDS011;17836;50.948;3.946;2022-08-18T06:07:11;24.33;;;18.30;;
31210;SDS011;17836;50.948;3.946;2022-08-18T06:09:46;19.85;;;17.50;;
31210;SDS011;17836;50.948;3.946;2022-08-18T06:12:21;22.70;;;17.70;;
31210;SDS011;17836;50.948;3.946;2022-08-18T06:14:48;19.05;;;16.55;;
31210;SDS011;17836;50.948;3.946;2022-08-18T06:19:56;24.80;;;18.60;;
31210;SDS011;17836;50.948;3.946;2022-08-18T06:24:53;22.70;;;19.23;;
31210;SDS011;17836;50.948;3.946;2022-08-18T06:27:26;25.98;;;18.33;;
31210;SDS011;17836;50.948;3.946;2022-08-18T06:30:04;21.42;;;16.40;;
31210;SDS011;17836;50.948;3.946;2022-08-18T06:35:22;22.05;;;17.20;;
31210;SDS011;17836;50.948;3.946;2022-08-18T06:40:41;20.15;;;16.90;;
31210;SDS011;17836;50.948;3.946;2022-08-18T06:43:08;20.25;;;15.52;;
31210;SDS011;17836;50.948;3.946;2022-08-18T06:45:36;24.33;;;17.58;;
31210;SDS011;17836;50.948;3.946;2022-08-18T06:48:17;21.33;;;17.20;;
31210;SDS011;17836;50.948;3.946;2022-08-18T06:50:48;21.20;;;16.17;;
31210;SDS011;17836;50.948;3.946;2022-08-18T06:53:14;24.15;;;17.45;;
31210;SDS011;17836;50.948;3.946;2022-08-18T06:55:41;19.67;;;15.02;;
31210;SDS011;17836;50.948;3.946;2022-08-18T07:00:35;34.47;;;18.88;;
31210;SDS011;17836;50.948;3.946;2022-08-18T07:03:12;38.20;;;19.05;;
31210;SDS011;17836;50.948;3.946;2022-08-18T07:05:53;28.45;;;16.90;;
31210;SDS011;17836;50.948;3.946;2022-08-18T07:08:33;25.13;;;17.02;;
31210;SDS011;17836;50.948;3.946;2022-08-18T07:13:37;24.70;;;17.85;;
31210;SDS011;17836;50.948;3.946;2022-08-18T07:18:40;28.20;;;20.55;;
31210;SDS011;17836;50.948;3.946;2022-08-18T07:21:07;36.72;;;22.42;;
31210;SDS011;17836;50.948;3.946;2022-08-18T07:23:33;39.23;;;22.17;;
31210;SDS011;17836;50.948;3.946;2022-08-18T07:31:10;28.38;;;17.65;;
31210;SDS011;17836;50.948;3.946;2022-08-18T07:33:36;30.13;;;18.73;;
31210;SDS011;17836;50.948;3.946;2022-08-18T07:36:03;32.17;;;19.00;;
31210;SDS011;17836;50.948;3.946;2022-08-18T07:41:08;33.23;;;19.67;;
31210;SDS011;17836;50.948;3.946;2022-08-18T07:43:45;29.80;;;18.50;;
31210;SDS011;17836;50.948;3.946;2022-08-18T07:48:52;34.58;;;20.55;;
31210;SDS011;17836;50.948;3.946;2022-08-18T07:51:22;31.47;;;19.23;;
31210;SDS011;17836;50.948;3.946;2022-08-18T07:57:02;36.42;;;23.58;;
31210;SDS011;17836;50.948;3.946;2022-08-18T08:03:58;35.00;;;22.92;;
31210;SDS011;17836;50.948;3.946;2022-08-18T08:06:31;34.63;;;22.55;;
31210;SDS011;17836;50.948;3.946;2022-08-18T08:14:36;32.80;;;21.38;;
31210;SDS011;17836;50.948;3.946;2022-08-18T08:17:09;32.08;;;20.88;;
31210;SDS011;17836;50.948;3.946;2022-08-18T08:22:04;29.15;;;19.08;;
31210;SDS011;17836;50.948;3.946;2022-08-18T08:30:13;26.90;;;17.67;;
31210;SDS011;17836;50.948;3.946;2022-08-18T08:35:13;20.02;;;14.93;;
31210;SDS011;17836;50.948;3.946;2022-08-18T08:37:45;23.70;;;17.20;;
31210;SDS011;17836;50.948;3.946;2022-08-18T08:42:47;25.35;;;18.13;;
31210;SDS011;17836;50.948;3.946;2022-08-18T08:45:17;21.17;;;15.82;;
31210;SDS011;17836;50.948;3.946;2022-08-18T08:47:55;20.30;;;16.13;;
31210;SDS011;17836;50.948;3.946;2022-08-18T08:50:24;20.83;;;15.57;;
31210;SDS011;17836;50.948;3.946;2022-08-18T08:52:51;24.95;;;18.42;;
31210;SDS011;17836;50.948;3.946;2022-08-18T08:55:22;23.50;;;18.30;;
31210;SDS011;17836;50.948;3.946;2022-08-18T09:00:17;22.00;;;17.60;;
31210;SDS011;17836;50.948;3.946;2022-08-18T09:02:53;21.00;;;17.50;;
31210;SDS011;17836;50.948;3.946;2022-08-18T09:05:34;23.95;;;18.50;;
31210;SDS011;17836;50.948;3.946;2022-08-18T09:08:04;21.05;;;16.35;;
31210;SDS011;17836;50.948;3.946;2022-08-18T09:16:44;20.20;;;16.55;;
31210;SDS011;17836;50.948;3.946;2022-08-18T09:23:50;20.83;;;17.23;;
31210;SDS011;17836;50.948;3.946;2022-08-18T09:27:10;20.95;;;18.08;;
31210;SDS011;17836;50.948;3.946;2022-08-18T09:29:20;20.60;;;16.73;;
31210;SDS011;17836;50.948;3.946;2022-08-18T09:32:29;18.30;;;16.15;;
31210;SDS011;17836;50.948;3.946;2022-08-18T09:37:19;20.23;;;16.00;;
31210;SDS011;17836;50.948;3.946;2022-08-18T09:40:01;22.17;;;16.23;;
31210;SDS011;17836;50.948;3.946;2022-08-18T09:47:58;17.67;;;14.87;;
31210;SDS011;17836;50.948;3.946;2022-08-18T09:52:57;13.38;;;12.02;;
31210;SDS011;17836;50.948;3.946;2022-08-18T09:58:12;14.00;;;11.53;;
31210;SDS011;17836;50.948;3.946;2022-08-18T10:00:34;12.20;;;11.00;;
31210;SDS011;17836;50.948;3.946;2022-08-18T10:03:01;13.93;;;12.45;;
31210;SDS011;17836;50.948;3.946;2022-08-18T10:05:27;13.05;;;11.07;;
31210;SDS011;17836;50.948;3.946;2022-08-18T10:21:13;12.18;;;11.15;;
31210;SDS011;17836;50.948;3.946;2022-08-18T10:23:58;11.95;;;10.85;;
31210;SDS011;17836;50.948;3.946;2022-08-18T10:29:03;13.00;;;11.67;;
31210;SDS011;17836;50.948;3.946;2022-08-18T10:31:30;12.05;;;10.85;;
31210;SDS011;17836;50.948;3.946;2022-08-18T10:34:09;12.00;;;10.55;;
31210;SDS011;17836;50.948;3.946;2022-08-18T10:36:48;10.80;;;9.95;;
31210;SDS011;17836;50.948;3.946;2022-08-18T10:39:22;13.40;;;12.20;;
31210;SDS011;17836;50.948;3.946;2022-08-18T10:42:01;13.13;;;11.93;;
31210;SDS011;17836;50.948;3.946;2022-08-18T10:44:29;14.03;;;12.73;;
31210;SDS011;17836;50.948;3.946;2022-08-18T10:46:55;13.00;;;11.75;;
31210;SDS011;17836;50.948;3.946;2022-08-18T11:38:12;15.38;;;13.98;;
31210;SDS011;17836;50.948;3.946;2022-08-18T11:40:45;14.52;;;13.15;;
31210;SDS011;17836;50.948;3.946;2022-08-18T11:43:12;14.43;;;13.02;;
31210;SDS011;17836;50.948;3.946;2022-08-18T11:56:39;13.43;;;12.05;;
31210;SDS011;17836;50.948;3.946;2022-08-18T12:01:39;14.98;;;13.60;;
31210;SDS011;17836;50.948;3.946;2022-08-18T12:09:22;12.93;;;11.88;;
31210;SDS011;17836;50.948;3.946;2022-08-18T12:11:49;13.40;;;12.20;;
31210;SDS011;17836;50.948;3.946;2022-08-18T12:14:16;14.95;;;13.55;;
31210;SDS011;17836;50.948;3.946;2022-08-18T12:16:42;14.60;;;13.32;;
31210;SDS011;17836;50.948;3.946;2022-08-18T12:19:09;12.95;;;11.75;;
31210;SDS011;17836;50.948;3.946;2022-08-18T12:21:40;15.50;;;14.00;;
31210;SDS011;17836;50.948;3.946;2022-08-18T12:24:49;12.18;;;11.02;;
31210;SDS011;17836;50.948;3.946;2022-08-18T12:26:55;14.15;;;12.95;;
31210;SDS011;17836;50.948;3.946;2022-08-18T12:29:20;13.98;;;12.70;;
31210;SDS011;17836;50.948;3.946;2022-08-18T12:31:47;13.07;;;11.77;;
31210;SDS011;17836;50.948;3.946;2022-08-18T12:34:18;11.38;;;10.38;;
31210;SDS011;17836;50.948;3.946;2022-08-18T12:36:44;11.83;;;10.70;;
31210;SDS011;17836;50.948;3.946;2022-08-18T12:39:09;11.50;;;10.40;;
31210;SDS011;17836;50.948;3.946;2022-08-18T12:41:34;11.00;;;10.17;;
31210;SDS011;17836;50.948;3.946;2022-08-18T12:44:00;11.33;;;10.23;;
31210;SDS011;17836;50.948;3.946;2022-08-18T12:46:25;10.57;;;9.60;;
31210;SDS011;17836;50.948;3.946;2022-08-18T12:48:51;9.65;;;8.77;;
31210;SDS011;17836;50.948;3.946;2022-08-18T12:51:16;9.25;;;8.48;;
31210;SDS011;17836;50.948;3.946;2022-08-18T12:53:42;9.32;;;8.52;;
31210;SDS011;17836;50.948;3.946;2022-08-18T12:58:42;9.68;;;8.68;;
31210;SDS011;17836;50.948;3.946;2022-08-18T13:01:08;7.93;;;7.22;;
31210;SDS011;17836;50.948;3.946;2022-08-18T13:03:34;8.65;;;7.95;;
31210;SDS011;17836;50.948;3.946;2022-08-18T13:06:00;8.43;;;7.78;;
31210;SDS011;17836;50.948;3.946;2022-08-18T13:08:25;7.47;;;6.83;;
31210;SDS011;17836;50.948;3.946;2022-08-18T13:10:50;9.13;;;8.33;;
31210;SDS011;17836;50.948;3.946;2022-08-18T13:13:16;8.60;;;7.90;;
31210;SDS011;17836;50.948;3.946;2022-08-18T13:15:42;8.35;;;7.60;;
31210;SDS011;17836;50.948;3.946;2022-08-18T13:18:08;9.23;;;8.52;;
31210;SDS011;17836;50.948;3.946;2022-08-18T13:20:33;7.63;;;7.03;;
31210;SDS011;17836;50.948;3.946;2022-08-18T13:23:00;10.43;;;9.52;;
31210;SDS011;17836;50.948;3.946;2022-08-18T13:25:25;9.67;;;8.87;;
31210;SDS011;17836;50.948;3.946;2022-08-18T13:27:51;9.13;;;8.23;;
31210;SDS011;17836;50.948;3.946;2022-08-18T13:30:16;9.83;;;8.93;;
31210;SDS011;17836;50.948;3.946;2022-08-18T13:32:41;11.07;;;10.07;;
31210;SDS011;17836;50.948;3.946;2022-08-18T13:35:07;10.05;;;9.15;;
31210;SDS011;17836;50.948;3.946;2022-08-18T13:37:33;12.18;;;9.20;;
31210;SDS011;17836;50.948;3.946;2022-08-18T13:39:59;8.85;;;7.90;;
31210;SDS011;17836;50.948;3.946;2022-08-18T13:42:25;8.10;;;7.40;;
31210;SDS011;17836;50.948;3.946;2022-08-18T13:44:53;7.88;;;7.00;;
31210;SDS011;17836;50.948;3.946;2022-08-18T13:47:19;8.27;;;6.97;;
31210;SDS011;17836;50.948;3.946;2022-08-18T13:49:45;7.55;;;6.82;;
31210;SDS011;17836;50.948;3.946;2022-08-18T13:52:11;7.22;;;6.10;;
31210;SDS011;17836;50.948;3.946;2022-08-18T13:54:36;6.72;;;6.13;;
31210;SDS011;17836;50.948;3.946;2022-08-18T13:57:02;5.97;;;5.47;;
31210;SDS011;17836;50.948;3.946;2022-08-18T13:59:28;5.53;;;5.05;;
31210;SDS011;17836;50.948;3.946;2022-08-18T14:01:58;5.78;;;5.28;;
31210;SDS011;17836;50.948;3.946;2022-08-18T14:04:24;5.70;;;5.28;;
31210;SDS011;17836;50.948;3.946;2022-08-18T14:06:52;5.85;;;5.45;;
31210;SDS011;17836;50.948;3.946;2022-08-18T14:09:18;7.00;;;5.53;;
31210;SDS011;17836;50.948;3.946;2022-08-18T14:11:44;5.90;;;5.40;;
31210;SDS011;17836;50.948;3.946;2022-08-18T14:14:11;7.47;;;5.50;;
31210;SDS011;17836;50.948;3.946;2022-08-18T14:16:37;6.20;;;5.70;;
31210;SDS011;17836;50.948;3.946;2022-08-18T14:19:02;7.38;;;6.68;;
31210;SDS011;17836;50.948;3.946;2022-08-18T14:21:48;5.25;;;4.63;;
31210;SDS011;17836;50.948;3.946;2022-08-18T14:24:33;4.95;;;4.53;;
31210;SDS011;17836;50.948;3.946;2022-08-18T14:27:17;5.30;;;4.80;;
31210;SDS011;17836;50.948;3.946;2022-08-18T14:29:43;6.13;;;5.53;;
31210;SDS011;17836;50.948;3.946;2022-08-18T14:32:11;4.82;;;4.40;;
31210;SDS011;17836;50.948;3.946;2022-08-18T14:34:36;4.57;;;4.23;;
31210;SDS011;17836;50.948;3.946;2022-08-18T14:37:02;4.40;;;4.07;;
31210;SDS011;17836;50.948;3.946;2022-08-18T14:39:27;5.80;;;5.30;;
31210;SDS011;17836;50.948;3.946;2022-08-18T14:41:52;5.20;;;4.73;;
31210;SDS011;17836;50.948;3.946;2022-08-18T14:44:18;5.97;;;5.38;;
31210;SDS011;17836;50.948;3.946;2022-08-18T14:46:43;4.38;;;3.97;;
31210;SDS011;17836;50.948;3.946;2022-08-18T14:49:11;4.43;;;4.07;;
31210;SDS011;17836;50.948;3.946;2022-08-18T14:51:36;4.25;;;3.60;;
31210;SDS011;17836;50.948;3.946;2022-08-18T14:54:06;4.28;;;3.88;;
31210;SDS011;17836;50.948;3.946;2022-08-18T14:56:32;5.50;;;4.50;;
31210;SDS011;17836;50.948;3.946;2022-08-18T14:58:58;5.50;;;5.03;;
31210;SDS011;17836;50.948;3.946;2022-08-18T15:01:23;4.30;;;3.90;;
31210;SDS011;17836;50.948;3.946;2022-08-18T15:03:48;5.13;;;4.72;;
31210;SDS011;17836;50.948;3.946;2022-08-18T15:06:14;4.80;;;4.33;;
31210;SDS011;17836;50.948;3.946;2022-08-18T15:08:39;5.15;;;4.75;;
31210;SDS011;17836;50.948;3.946;2022-08-18T15:11:05;4.10;;;3.80;;
31210;SDS011;17836;50.948;3.946;2022-08-18T15:13:31;5.68;;;4.32;;
31210;SDS011;17836;50.948;3.946;2022-08-18T15:15:57;5.25;;;4.75;;
31210;SDS011;17836;50.948;3.946;2022-08-18T15:18:23;5.30;;;4.07;;
31210;SDS011;17836;50.948;3.946;2022-08-18T15:20:51;5.05;;;4.13;;
31210;SDS011;17836;50.948;3.946;2022-08-18T15:23:35;4.43;;;4.03;;
31210;SDS011;17836;50.948;3.946;2022-08-18T15:26:21;3.65;;;3.28;;
31210;SDS011;17836;50.948;3.946;2022-08-18T15:28:48;4.63;;;4.00;;
31210;SDS011;17836;50.948;3.946;2022-08-18T15:31:14;3.53;;;3.22;;
31210;SDS011;17836;50.948;3.946;2022-08-18T15:33:39;4.07;;;3.72;;
31210;SDS011;17836;50.948;3.946;2022-08-18T15:36:06;3.63;;;3.30;;
31210;SDS011;17836;50.948;3.946;2022-08-18T15:38:32;3.83;;;3.53;;
31210;SDS011;17836;50.948;3.946;2022-08-18T15:40:58;4.47;;;4.10;;
31210;SDS011;17836;50.948;3.946;2022-08-18T15:43:25;8.10;;;3.88;;
31210;SDS011;17836;50.948;3.946;2022-08-18T15:45:50;4.88;;;3.70;;
31210;SDS011;17836;50.948;3.946;2022-08-18T15:48:18;6.05;;;4.60;;
31210;SDS011;17836;50.948;3.946;2022-08-18T15:50:45;4.28;;;3.97;;
31210;SDS011;17836;50.948;3.946;2022-08-18T15:53:12;3.67;;;3.38;;
31210;SDS011;17836;50.948;3.946;2022-08-18T15:55:39;3.78;;;3.47;;
31210;SDS011;17836;50.948;3.946;2022-08-18T15:58:04;4.25;;;3.85;;
31210;SDS011;17836;50.948;3.946;2022-08-18T16:00:30;3.55;;;3.00;;
31210;SDS011;17836;50.948;3.946;2022-08-18T16:02:57;3.58;;;3.10;;
31210;SDS011;17836;50.948;3.946;2022-08-18T16:05:24;5.88;;;3.17;;
31210;SDS011;17836;50.948;3.946;2022-08-18T16:07:50;3.53;;;3.22;;
31210;SDS011;17836;50.948;3.946;2022-08-18T16:10:16;3.42;;;3.03;;
31210;SDS011;17836;50.948;3.946;2022-08-18T16:12:42;5.07;;;4.05;;
31210;SDS011;17836;50.948;3.946;2022-08-18T16:15:08;4.28;;;3.88;;
31210;SDS011;17836;50.948;3.946;2022-08-18T16:17:33;3.28;;;2.95;;
31210;SDS011;17836;50.948;3.946;2022-08-18T16:19:59;3.60;;;3.30;;
31210;SDS011;17836;50.948;3.946;2022-08-18T16:22:25;3.60;;;3.30;;
31210;SDS011;17836;50.948;3.946;2022-08-18T16:24:50;4.80;;;4.18;;
31210;SDS011;17836;50.948;3.946;2022-08-18T16:27:16;4.90;;;4.10;;
31210;SDS011;17836;50.948;3.946;2022-08-18T16:29:41;4.30;;;3.90;;
31210;SDS011;17836;50.948;3.946;2022-08-18T16:32:06;4.10;;;3.80;;
31210;SDS011;17836;50.948;3.946;2022-08-18T16:34:32;4.32;;;3.92;;
31210;SDS011;17836;50.948;3.946;2022-08-18T16:36:58;3.75;;;3.33;;
31210;SDS011;17836;50.948;3.946;2022-08-18T16:39:24;3.78;;;3.47;;
31210;SDS011;17836;50.948;3.946;2022-08-18T16:41:50;4.22;;;3.85;;
31210;SDS011;17836;50.948;3.946;2022-08-18T16:44:15;3.70;;;3.40;;
31210;SDS011;17836;50.948;3.946;2022-08-18T16:46:41;4.40;;;4.00;;
31210;SDS011;17836;50.948;3.946;2022-08-18T16:49:07;4.85;;;4.45;;
31210;SDS011;17836;50.948;3.946;2022-08-18T16:51:33;3.20;;;2.95;;
31210;SDS011;17836;50.948;3.946;2022-08-18T16:53:59;5.20;;;3.60;;
31210;SDS011;17836;50.948;3.946;2022-08-18T16:56:26;4.10;;;3.80;;
31210;SDS011;17836;50.948;3.946;2022-08-18T16:58:52;4.43;;;4.03;;
31210;SDS011;17836;50.948;3.946;2022-08-18T17:01:36;3.97;;;3.67;;
31210;SDS011;17836;50.948;3.946;2022-08-18T17:04:22;4.45;;;4.03;;
31210;SDS011;17836;50.948;3.946;2022-08-18T17:06:48;4.20;;;3.80;;
31210;SDS011;17836;50.948;3.946;2022-08-18T17:09:14;4.15;;;3.85;;
31210;SDS011;17836;50.948;3.946;2022-08-18T17:11:39;3.85;;;3.53;;
31210;SDS011;17836;50.948;3.946;2022-08-18T17:14:05;4.25;;;3.60;;
31210;SDS011;17836;50.948;3.946;2022-08-18T17:16:32;4.53;;;3.97;;
31210;SDS011;17836;50.948;3.946;2022-08-18T17:18:57;4.18;;;3.78;;
31210;SDS011;17836;50.948;3.946;2022-08-18T17:21:25;6.72;;;4.00;;
31210;SDS011;17836;50.948;3.946;2022-08-18T17:23:51;3.72;;;3.38;;
31210;SDS011;17836;50.948;3.946;2022-08-18T17:29:12;4.97;;;4.30;;
31210;SDS011;17836;50.948;3.946;2022-08-18T17:31:40;4.05;;;3.67;;
31210;SDS011;17836;50.948;3.946;2022-08-18T17:34:07;3.63;;;3.33;;
31210;SDS011;17836;50.948;3.946;2022-08-18T17:36:37;4.60;;;4.20;;
31210;SDS011;17836;50.948;3.946;2022-08-18T17:39:04;4.30;;;3.90;;
31210;SDS011;17836;50.948;3.946;2022-08-18T17:41:30;4.30;;;3.90;;
31210;SDS011;17836;50.948;3.946;2022-08-18T17:43:57;3.85;;;3.55;;